createdAt,value
2022-12-13T00:01:30.708Z,43.27
2022-12-13T00:04:00.738Z,40.00
2022-12-13T00:06:27.612Z,42.63
2022-12-13T00:08:54.461Z,39.50
2022-12-13T00:11:20.899Z,50.03
2022-12-13T00:13:48.004Z,39.57
2022-12-13T00:16:15.711Z,41.73
2022-12-13T00:18:42.173Z,45.20
2022-12-13T00:21:09.902Z,42.73
2022-12-13T00:23:36.536Z,40.23
2022-12-13T00:26:05.761Z,40.80
2022-12-13T00:28:32.432Z,41.97
2022-12-13T00:31:19.707Z,43.80
2022-12-13T00:33:46.303Z,47.20
2022-12-13T00:36:13.058Z,41.00
2022-12-13T00:38:39.646Z,41.50
2022-12-13T00:41:13.200Z,39.47
2022-12-13T00:43:39.787Z,46.20
2022-12-13T00:46:07.294Z,43.70
2022-12-13T00:48:33.719Z,40.50
2022-12-13T00:51:00.496Z,44.30
2022-12-13T00:53:26.870Z,46.73
2022-12-13T00:55:53.325Z,43.90
2022-12-13T00:58:19.688Z,43.67
2022-12-13T01:00:47.183Z,42.63
2022-12-13T01:03:25.477Z,45.60
2022-12-13T01:08:39.580Z,46.53
2022-12-13T01:11:06.521Z,45.40
2022-12-13T01:13:33.044Z,42.20
2022-12-13T01:16:02.097Z,45.37
2022-12-13T01:18:28.858Z,47.20
2022-12-13T01:20:59.386Z,46.57
2022-12-13T01:23:26.393Z,47.47
2022-12-13T01:25:52.851Z,48.23
2022-12-13T01:28:19.332Z,48.33
2022-12-13T01:30:53.382Z,50.70
2022-12-13T01:33:19.825Z,53.37
2022-12-13T01:35:46.290Z,50.50
2022-12-13T01:38:16.136Z,44.07
2022-12-13T01:40:58.784Z,48.93
2022-12-13T01:43:46.830Z,50.40
2022-12-13T01:46:14.030Z,49.87
2022-12-13T01:48:59.312Z,48.53
2022-12-13T01:51:47.685Z,51.50
2022-12-13T01:54:20.985Z,48.33
2022-12-13T01:56:51.071Z,48.90
2022-12-13T01:59:18.271Z,46.13
2022-12-13T02:01:47.674Z,47.83
2022-12-13T02:04:14.854Z,54.20
2022-12-13T02:06:43.548Z,50.60
2022-12-13T02:09:10.513Z,49.17
2022-12-13T02:11:39.159Z,48.73
2022-12-13T02:14:05.639Z,50.83
2022-12-13T02:16:38.021Z,57.23
2022-12-13T02:19:26.309Z,42.57
2022-12-13T02:22:25.337Z,50.00
2022-12-13T02:25:04.209Z,51.70
2022-12-13T02:27:42.536Z,54.63
2022-12-13T02:30:20.778Z,46.63
2022-12-13T02:33:06.214Z,49.33
2022-12-13T02:35:39.967Z,57.90
2022-12-13T02:38:24.320Z,55.33
2022-12-13T02:41:04.769Z,55.20
2022-12-13T02:43:34.684Z,54.73
2022-12-13T02:46:01.969Z,49.80
2022-12-13T02:48:36.904Z,44.87
2022-12-13T02:51:04.926Z,50.80
2022-12-13T02:53:33.687Z,43.60
2022-12-13T02:56:00.533Z,53.70
2022-12-13T02:58:32.103Z,47.03
2022-12-13T03:01:04.804Z,44.47
2022-12-13T03:04:01.178Z,47.67
2022-12-13T03:06:33.295Z,49.80
2022-12-13T03:09:08.522Z,46.53
2022-12-13T03:12:04.860Z,48.67
2022-12-13T03:14:33.429Z,51.00
2022-12-13T03:17:00.847Z,48.27
2022-12-13T03:19:27.344Z,48.67
2022-12-13T03:21:53.845Z,45.53
2022-12-13T03:24:21.026Z,47.67
2022-12-13T03:26:48.546Z,47.40
2022-12-13T03:29:23.869Z,56.00
2022-12-13T03:31:51.642Z,46.77
2022-12-13T03:34:22.916Z,47.83
2022-12-13T03:36:51.371Z,47.27
2022-12-13T03:39:17.873Z,58.33
2022-12-13T03:41:44.440Z,48.63
2022-12-13T03:44:10.915Z,49.27
2022-12-13T03:46:37.616Z,45.67
2022-12-13T03:49:04.118Z,49.17
2022-12-13T03:51:30.544Z,53.77
2022-12-13T03:53:57.039Z,55.07
2022-12-13T03:56:23.564Z,47.03
2022-12-13T03:58:49.974Z,48.33
2022-12-13T04:01:16.598Z,49.67
2022-12-13T04:03:45.483Z,49.63
2022-12-13T04:06:12.449Z,48.97
2022-12-13T04:08:39.548Z,48.47
2022-12-13T04:11:25.103Z,58.87
2022-12-13T04:13:52.626Z,51.43
2022-12-13T04:16:19.226Z,50.07
2022-12-13T04:18:45.688Z,48.10
2022-12-13T04:21:12.115Z,49.63
2022-12-13T04:23:38.585Z,54.10
2022-12-13T04:26:05.110Z,48.57
2022-12-13T04:28:31.493Z,45.30
2022-12-13T04:30:57.921Z,48.27
2022-12-13T04:33:24.689Z,47.50
2022-12-13T04:35:51.797Z,52.43
2022-12-13T04:38:21.003Z,50.30
2022-12-13T04:40:47.667Z,45.17
2022-12-13T04:43:14.112Z,47.37
2022-12-13T04:45:40.732Z,48.63
2022-12-13T04:48:07.573Z,54.70
2022-12-13T04:50:33.967Z,46.97
2022-12-13T04:53:00.450Z,51.03
2022-12-13T04:55:26.915Z,53.07
2022-12-13T04:57:53.437Z,55.17
2022-12-13T05:00:22.046Z,54.33
2022-12-13T05:02:48.576Z,50.40
2022-12-13T05:05:15.439Z,51.73
2022-12-13T05:07:43.025Z,55.87
2022-12-13T05:10:10.488Z,62.43
2022-12-13T05:12:37.155Z,62.03
2022-12-13T05:15:03.909Z,57.37
2022-12-13T05:17:30.468Z,59.20
2022-12-13T05:19:56.893Z,50.90
2022-12-13T05:22:23.295Z,57.73
2022-12-13T05:24:49.790Z,53.93
2022-12-13T05:27:25.755Z,57.97
2022-12-13T05:30:04.281Z,58.30
2022-12-13T05:32:43.692Z,54.90
2022-12-13T05:35:22.386Z,65.20
2022-12-13T05:37:54.200Z,70.20
2022-12-13T05:40:22.331Z,53.30
2022-12-13T05:42:48.781Z,53.57
2022-12-13T05:45:16.233Z,59.20
2022-12-13T05:47:43.076Z,65.07
2022-12-13T05:50:09.585Z,56.50
2022-12-13T05:52:36.133Z,61.20
2022-12-13T05:55:03.083Z,56.83
2022-12-13T05:57:29.625Z,56.37
2022-12-13T05:59:56.239Z,57.27
2022-12-13T06:02:22.844Z,53.10
2022-12-13T06:04:49.539Z,50.60
2022-12-13T06:07:15.948Z,51.13
2022-12-13T06:09:42.727Z,51.07
2022-12-13T06:12:31.031Z,51.40
2022-12-13T06:15:01.415Z,48.90
2022-12-13T06:17:35.072Z,64.60
2022-12-13T06:20:01.754Z,56.37
2022-12-13T06:22:28.171Z,51.40
2022-12-13T06:24:55.008Z,49.20
2022-12-13T06:27:21.814Z,61.03
2022-12-13T06:29:48.526Z,58.77
2022-12-13T06:32:14.984Z,61.43
2022-12-13T06:34:41.563Z,51.83
2022-12-13T06:37:08.968Z,49.23
2022-12-13T06:39:35.775Z,56.33
2022-12-13T06:42:02.864Z,44.77
2022-12-13T06:44:30.287Z,48.00
2022-12-13T06:47:10.822Z,52.13
2022-12-13T06:49:39.592Z,62.50
2022-12-13T06:52:09.919Z,51.00
2022-12-13T06:54:36.609Z,46.77
2022-12-13T06:57:03.040Z,51.27
2022-12-13T06:59:29.532Z,52.50
2022-12-13T07:01:56.089Z,58.70
2022-12-13T07:04:31.239Z,65.03
2022-12-13T07:07:01.655Z,62.73
2022-12-13T07:09:31.893Z,54.83
2022-12-13T07:11:58.641Z,56.53
2022-12-13T07:14:25.275Z,62.43
2022-12-13T07:16:51.963Z,57.57
2022-12-13T07:19:22.806Z,54.53
2022-12-13T07:21:51.003Z,70.10
2022-12-13T07:24:17.450Z,67.10
2022-12-13T07:26:44.033Z,67.37
2022-12-13T07:29:10.634Z,67.07
2022-12-13T07:31:37.991Z,68.50
2022-12-13T07:34:04.464Z,63.27
2022-12-13T07:36:33.609Z,59.83
2022-12-13T07:39:03.117Z,59.93
2022-12-13T07:41:29.826Z,56.87
2022-12-13T07:43:56.344Z,55.57
2022-12-13T07:46:33.263Z,53.93
2022-12-13T07:49:04.452Z,52.03
2022-12-13T07:51:36.404Z,54.10
2022-12-13T07:54:08.457Z,46.63
2022-12-13T07:56:36.111Z,54.20
2022-12-13T07:59:02.865Z,64.93
2022-12-13T08:01:31.475Z,60.07
2022-12-13T08:03:57.936Z,53.23
2022-12-13T08:06:24.410Z,51.20
2022-12-13T08:08:54.812Z,48.80
2022-12-13T08:11:21.358Z,52.00
2022-12-13T08:13:47.782Z,49.23
2022-12-13T08:16:26.103Z,44.43
2022-12-13T08:19:03.003Z,56.93
2022-12-13T08:21:54.032Z,54.87
2022-12-13T08:24:27.983Z,57.10
2022-12-13T08:27:01.422Z,48.73
2022-12-13T08:29:34.040Z,44.77
2022-12-13T08:32:02.766Z,49.07
2022-12-13T08:34:29.503Z,50.87
2022-12-13T08:37:02.065Z,54.07
2022-12-13T08:39:30.276Z,57.40
2022-12-13T08:42:01.070Z,47.80
2022-12-13T08:44:44.199Z,48.90
2022-12-13T08:47:10.866Z,43.63
2022-12-13T08:49:37.313Z,49.50
2022-12-13T08:52:03.821Z,31.67
2022-12-13T08:54:32.862Z,46.83
2022-12-13T08:56:59.423Z,44.43
2022-12-13T08:59:27.606Z,45.50
2022-12-13T09:01:56.635Z,43.47
2022-12-13T09:04:31.457Z,40.77
2022-12-13T09:07:01.325Z,51.60
2022-12-13T09:09:28.930Z,51.33
2022-12-13T09:11:59.456Z,45.73
2022-12-13T09:14:34.007Z,35.03
2022-12-13T09:17:02.858Z,37.20
2022-12-13T09:19:36.776Z,47.33
2022-12-13T09:22:03.742Z,45.67
2022-12-13T09:24:36.146Z,43.60
2022-12-13T09:27:03.325Z,45.23
2022-12-13T09:29:36.455Z,43.20
2022-12-13T09:32:03.137Z,41.13
2022-12-13T09:34:29.729Z,32.33
2022-12-13T09:37:01.727Z,39.13
2022-12-13T09:39:29.681Z,30.63
2022-12-13T09:42:00.585Z,33.97
2022-12-13T09:44:43.926Z,35.20
2022-12-13T09:47:15.649Z,38.67
2022-12-13T09:49:52.584Z,35.27
2022-12-13T09:52:22.438Z,38.97
2022-12-13T09:54:50.988Z,34.80
2022-12-13T09:57:31.476Z,44.27
2022-12-13T10:00:08.096Z,34.03
2022-12-13T10:02:45.246Z,40.93
2022-12-13T10:05:21.845Z,43.07
2022-12-13T10:07:51.321Z,42.37
2022-12-13T10:10:18.034Z,39.10
2022-12-13T10:12:45.815Z,41.13
2022-12-13T10:15:13.875Z,43.80
2022-12-13T10:17:55.145Z,44.50
2022-12-13T10:20:26.007Z,46.63
2022-12-13T10:23:30.154Z,43.67
2022-12-13T10:25:45.235Z,37.07
2022-12-13T10:28:12.013Z,36.27
2022-12-13T10:30:43.120Z,39.43
2022-12-13T10:33:24.374Z,42.60
2022-12-13T10:36:03.768Z,36.80
2022-12-13T10:38:31.604Z,33.03
2022-12-13T10:40:58.920Z,34.30
2022-12-13T10:43:28.292Z,39.90
2022-12-13T10:45:58.469Z,39.97
2022-12-13T10:48:38.164Z,35.10
2022-12-13T10:51:06.588Z,34.37
2022-12-13T10:53:35.243Z,33.77
2022-12-13T10:56:02.665Z,28.13
2022-12-13T10:58:36.561Z,33.33
2022-12-13T11:01:24.003Z,32.87
2022-12-13T11:04:04.832Z,32.47
2022-12-13T11:06:45.154Z,34.97
2022-12-13T11:09:25.423Z,32.10
2022-12-13T11:11:58.515Z,35.30
2022-12-13T11:14:31.796Z,28.67
2022-12-13T11:17:07.150Z,26.57
2022-12-13T11:19:51.550Z,28.47
2022-12-13T11:22:22.528Z,27.93
2022-12-13T11:24:51.980Z,30.07
2022-12-13T11:27:18.371Z,31.13
2022-12-13T11:29:54.667Z,27.23
2022-12-13T11:32:29.614Z,30.80
2022-12-13T11:35:09.244Z,29.10
2022-12-13T11:37:45.470Z,28.43
2022-12-13T11:40:14.537Z,25.00
2022-12-13T11:42:47.398Z,23.67
2022-12-13T11:45:23.113Z,24.30
2022-12-13T11:47:58.486Z,21.67
2022-12-13T11:50:34.180Z,23.53
2022-12-13T11:53:19.251Z,21.03
2022-12-13T11:55:52.455Z,25.23
2022-12-13T11:59:00.657Z,22.33
2022-12-13T12:01:23.229Z,20.33
2022-12-13T12:03:54.406Z,19.73
2022-12-13T12:06:22.601Z,20.80
2022-12-13T12:08:52.214Z,21.27
2022-12-13T12:11:33.920Z,32.87
2022-12-13T12:14:04.527Z,22.80
2022-12-13T12:16:38.153Z,21.30
2022-12-13T12:19:09.627Z,20.10
2022-12-13T12:22:13.691Z,21.50
2022-12-13T12:25:05.595Z,21.40
2022-12-13T12:27:40.931Z,18.30
2022-12-13T12:30:10.534Z,23.63
2022-12-13T12:32:57.286Z,22.20
2022-12-13T12:35:29.936Z,19.93
2022-12-13T12:38:12.406Z,19.10
2022-12-13T12:41:15.790Z,19.47
2022-12-13T12:43:42.917Z,22.73
2022-12-13T12:46:15.886Z,19.73
2022-12-13T12:48:56.976Z,19.77
2022-12-13T12:51:32.521Z,17.33
2022-12-13T12:54:05.956Z,18.53
2022-12-13T12:56:47.013Z,16.87
2022-12-13T12:59:30.989Z,17.07
2022-12-13T13:02:04.482Z,18.83
2022-12-13T13:04:39.156Z,15.57
2022-12-13T13:07:22.997Z,16.47
2022-12-13T13:09:50.522Z,17.03
2022-12-13T13:12:28.814Z,17.97
2022-12-13T13:14:57.053Z,16.33
2022-12-13T13:17:23.440Z,17.07
2022-12-13T13:20:12.283Z,17.43
2022-12-13T13:22:44.463Z,16.00
2022-12-13T13:25:30.325Z,17.27
2022-12-13T13:28:06.268Z,16.40
2022-12-13T13:30:33.047Z,15.27
2022-12-13T13:32:59.489Z,16.43
2022-12-13T13:35:48.120Z,16.00
2022-12-13T13:38:23.972Z,17.17
2022-12-13T13:40:50.977Z,17.07
2022-12-13T13:43:32.220Z,17.90
2022-12-13T13:46:02.863Z,17.70
2022-12-13T13:48:47.866Z,16.50
2022-12-13T13:51:14.361Z,19.00
2022-12-13T13:53:59.552Z,19.07
2022-12-13T13:56:29.415Z,16.30
2022-12-13T13:59:17.480Z,15.77
2022-12-13T14:01:50.236Z,16.83
2022-12-13T14:04:31.616Z,17.93
2022-12-13T14:07:00.960Z,18.67
2022-12-13T14:09:46.605Z,16.47
2022-12-13T14:12:29.860Z,16.70
2022-12-13T14:15:15.856Z,16.83
2022-12-13T14:18:10.588Z,18.03
2022-12-13T14:20:37.031Z,18.30
2022-12-13T14:23:09.336Z,19.23
2022-12-13T14:25:51.991Z,18.20
2022-12-13T14:28:38.082Z,17.97
2022-12-13T14:31:26.024Z,16.90
2022-12-13T14:33:53.773Z,20.40
2022-12-13T14:36:29.659Z,17.53
2022-12-13T14:39:05.188Z,17.47
2022-12-13T14:41:33.295Z,18.90
2022-12-13T14:44:33.784Z,16.23
2022-12-13T14:47:01.117Z,18.37
2022-12-13T14:49:28.837Z,17.53
2022-12-13T14:52:01.608Z,15.40
2022-12-13T14:54:30.247Z,17.67
2022-12-13T14:57:01.506Z,16.83
2022-12-13T14:59:29.620Z,16.70
2022-12-13T15:01:59.339Z,15.93
2022-12-13T15:04:28.042Z,18.80
2022-12-13T15:07:15.219Z,18.53
2022-12-13T15:09:47.864Z,18.57
2022-12-13T15:12:25.263Z,18.73
2022-12-13T15:15:00.531Z,21.60
2022-12-13T15:17:29.130Z,20.83
2022-12-13T15:20:02.271Z,18.50
2022-12-13T15:22:34.989Z,16.63
2022-12-13T15:25:13.427Z,19.37
2022-12-13T15:27:48.505Z,17.63
2022-12-13T15:30:15.427Z,17.60
2022-12-13T15:33:00.791Z,19.13
2022-12-13T15:35:27.418Z,16.50
2022-12-13T15:37:53.882Z,17.90
2022-12-13T15:40:20.542Z,17.80
2022-12-13T15:42:48.475Z,16.63
2022-12-13T15:45:22.615Z,16.63
2022-12-13T15:47:49.506Z,17.87
2022-12-13T15:50:35.844Z,17.93
2022-12-13T15:53:04.300Z,18.40
2022-12-13T15:55:33.744Z,19.47
2022-12-13T15:58:00.257Z,18.67
2022-12-13T16:00:30.715Z,16.07
2022-12-13T16:03:08.895Z,18.43
2022-12-13T16:05:37.756Z,22.10
2022-12-13T16:08:13.892Z,17.00
2022-12-13T16:10:45.592Z,18.37
2022-12-13T16:13:26.366Z,18.10
2022-12-13T16:15:59.836Z,16.90
2022-12-13T16:18:42.833Z,29.87
2022-12-13T16:21:10.111Z,18.83
2022-12-13T16:23:36.545Z,20.33
2022-12-13T16:26:08.503Z,18.47
2022-12-13T16:28:35.526Z,21.77
2022-12-13T16:31:11.301Z,18.47
2022-12-13T16:33:37.821Z,17.93
2022-12-13T16:36:04.366Z,17.47
2022-12-13T16:38:30.825Z,16.17
2022-12-13T16:40:59.666Z,19.30
2022-12-13T16:43:33.403Z,17.57
2022-12-13T16:47:17.880Z,16.73
2022-12-13T16:48:50.280Z,17.47
2022-12-13T16:51:16.805Z,19.07
2022-12-13T16:53:43.795Z,18.33
2022-12-13T16:56:11.454Z,16.77
2022-12-13T16:58:38.140Z,19.40
2022-12-13T17:01:11.691Z,16.53
2022-12-13T17:03:38.448Z,18.00
2022-12-13T17:06:05.450Z,18.00
2022-12-13T17:08:33.300Z,18.70
2022-12-13T17:10:59.740Z,16.53
2022-12-13T17:13:28.044Z,17.10
2022-12-13T17:15:59.505Z,17.50
2022-12-13T17:18:26.796Z,18.77
2022-12-13T17:20:58.455Z,17.93
2022-12-13T17:23:27.233Z,16.00
2022-12-13T17:25:57.987Z,18.47
2022-12-13T17:28:24.887Z,18.53
2022-12-13T17:30:54.703Z,18.40
2022-12-13T17:33:21.873Z,17.13
2022-12-13T17:35:48.672Z,16.43
2022-12-13T17:38:15.219Z,18.13
2022-12-13T17:40:41.699Z,19.63
2022-12-13T17:43:10.358Z,16.70
2022-12-13T17:45:42.739Z,15.00
2022-12-13T17:48:09.201Z,15.00
2022-12-13T17:50:37.759Z,17.43
2022-12-13T17:53:04.461Z,15.63
2022-12-13T17:55:31.759Z,14.73
2022-12-13T17:58:04.113Z,14.77
2022-12-13T18:00:30.980Z,15.93
2022-12-13T18:02:57.459Z,14.63
2022-12-13T18:05:26.129Z,15.50
2022-12-13T18:07:52.575Z,13.57
2022-12-13T18:10:19.266Z,14.47
2022-12-13T18:12:45.635Z,14.67
2022-12-13T18:15:12.063Z,14.27
2022-12-13T18:18:09.615Z,14.53
2022-12-13T18:20:25.104Z,15.03
2022-12-13T18:22:51.764Z,16.83
2022-12-13T18:25:18.169Z,14.43
2022-12-13T18:27:44.614Z,14.37
2022-12-13T18:30:11.306Z,16.43
2022-12-13T18:32:39.824Z,13.43
2022-12-13T18:35:06.519Z,13.47
2022-12-13T18:37:32.924Z,14.30
2022-12-13T18:39:59.462Z,15.60
2022-12-13T18:42:25.979Z,16.10
2022-12-13T18:44:54.943Z,17.00
2022-12-13T18:47:21.573Z,13.23
2022-12-13T18:49:54.603Z,14.60
2022-12-13T18:52:23.573Z,14.53
2022-12-13T18:54:54.353Z,13.40
2022-12-13T18:57:24.315Z,13.13
2022-12-13T18:59:54.744Z,14.63
2022-12-13T19:02:25.703Z,14.97
2022-12-13T19:04:55.534Z,12.37
2022-12-13T19:07:22.288Z,14.30
2022-12-13T19:09:54.708Z,13.50
2022-12-13T19:12:24.604Z,17.77
2022-12-13T19:14:54.707Z,15.97
2022-12-13T19:17:21.951Z,14.93
2022-12-13T19:19:48.612Z,14.73
2022-12-13T19:22:18.412Z,14.70
2022-12-13T19:24:45.254Z,13.73
2022-12-13T19:27:11.865Z,14.33
2022-12-13T19:29:38.338Z,14.70
2022-12-13T19:32:04.913Z,14.07
2022-12-13T19:34:31.370Z,15.17
2022-12-13T19:37:01.621Z,13.93
2022-12-13T19:39:35.582Z,12.87
2022-12-13T19:42:02.194Z,14.13
2022-12-13T19:44:31.271Z,14.03
2022-12-13T19:46:58.245Z,15.83
2022-12-13T19:49:24.844Z,15.07
2022-12-13T19:51:51.605Z,14.77
2022-12-13T19:54:18.123Z,12.93
2022-12-13T19:56:45.130Z,12.27
2022-12-13T19:59:14.330Z,13.77
2022-12-13T20:01:41.249Z,12.43
2022-12-13T20:04:07.730Z,13.50
2022-12-13T20:06:34.248Z,14.33
2022-12-13T20:09:00.774Z,13.30
2022-12-13T20:11:27.387Z,12.70
2022-12-13T20:13:54.648Z,11.90
2022-12-13T20:16:22.534Z,13.07
2022-12-13T20:18:53.264Z,14.27
2022-12-13T20:21:19.892Z,13.33
2022-12-13T20:23:49.175Z,12.00
2022-12-13T20:26:17.005Z,12.63
2022-12-13T20:28:43.458Z,13.73
2022-12-13T20:31:11.249Z,12.00
2022-12-13T20:33:38.719Z,12.27
2022-12-13T20:38:56.367Z,10.83
2022-12-13T20:41:23.676Z,14.63
2022-12-13T20:43:55.117Z,14.60
2022-12-13T20:46:23.712Z,11.90
2022-12-13T20:48:51.022Z,13.37
2022-12-13T20:51:19.184Z,14.27
2022-12-13T20:53:46.930Z,11.13
2022-12-13T20:56:15.046Z,13.30
2022-12-13T20:58:43.041Z,10.67
2022-12-13T21:01:13.466Z,10.10
2022-12-13T21:03:41.716Z,12.27
2022-12-13T21:06:10.367Z,11.07
2022-12-13T21:08:52.096Z,10.67
2022-12-13T21:11:29.211Z,9.80
2022-12-13T21:14:08.354Z,12.03
2022-12-13T21:16:42.011Z,10.40
2022-12-13T21:19:09.640Z,10.23
2022-12-13T21:21:36.611Z,11.20
2022-12-13T21:24:06.023Z,13.30
2022-12-13T21:26:35.761Z,11.37
2022-12-13T21:29:04.374Z,11.00
2022-12-13T21:31:30.992Z,12.40
2022-12-13T21:33:59.309Z,11.80
2022-12-13T21:36:34.278Z,11.27
2022-12-13T21:39:02.018Z,13.63
2022-12-13T21:41:30.617Z,11.67
2022-12-13T21:43:57.101Z,10.50
2022-12-13T21:46:31.334Z,10.43
2022-12-13T21:49:12.180Z,11.13
2022-12-13T21:51:43.252Z,10.33
2022-12-13T21:54:12.670Z,10.77
2022-12-13T21:57:05.379Z,10.17
2022-12-13T21:59:32.021Z,11.97
2022-12-13T22:02:11.883Z,10.77
2022-12-13T22:04:44.402Z,14.03
2022-12-13T22:07:22.928Z,10.70
2022-12-13T22:09:52.411Z,9.10
2022-12-13T22:12:22.563Z,12.77
2022-12-13T22:14:49.860Z,11.03
2022-12-13T22:17:17.723Z,12.23
2022-12-13T22:19:48.379Z,11.90
2022-12-13T22:22:16.057Z,10.33
2022-12-13T22:24:42.836Z,11.07
2022-12-13T22:27:09.511Z,11.27
2022-12-13T22:29:36.889Z,10.30
2022-12-13T22:32:04.810Z,10.23
2022-12-13T22:34:32.240Z,8.77
2022-12-13T22:36:59.313Z,9.63
2022-12-13T22:39:25.942Z,9.63
2022-12-13T22:41:52.499Z,9.27
2022-12-13T22:44:23.620Z,10.07
2022-12-13T22:46:50.149Z,11.80
2022-12-13T22:49:20.012Z,13.37
2022-12-13T22:51:48.370Z,13.70
2022-12-13T22:54:15.562Z,14.37
2022-12-13T22:56:42.182Z,9.30
2022-12-13T22:59:09.958Z,11.30
2022-12-13T23:01:40.746Z,9.37
2022-12-13T23:04:08.011Z,9.60
2022-12-13T23:06:35.930Z,8.53
2022-12-13T23:09:05.269Z,7.53
2022-12-13T23:11:52.533Z,9.13
2022-12-13T23:14:22.223Z,8.27
2022-12-13T23:16:49.548Z,8.03
2022-12-13T23:22:11.396Z,8.40
2022-12-13T23:24:37.932Z,7.83
2022-12-13T23:27:04.478Z,8.37
2022-12-13T23:29:31.598Z,7.90
2022-12-13T23:31:58.126Z,7.47
2022-12-13T23:34:24.827Z,8.17
2022-12-13T23:36:51.365Z,8.60
2022-12-13T23:39:18.030Z,8.13
2022-12-13T23:41:44.542Z,8.83
2022-12-13T23:44:18.655Z,7.60
2022-12-13T23:46:51.219Z,6.97
2022-12-13T23:49:19.381Z,7.60
2022-12-13T23:51:48.478Z,8.37
2022-12-13T23:54:19.204Z,7.50
2022-12-13T23:56:48.050Z,6.97
2022-12-13T23:59:16.910Z,8.40
